sensor_id;sensor_type;location;lat;lon;timestamp;P1;durP1;ratioP1;P2;durP2;ratioP2
26953;SDS011;14508;50.924;11.600;2023-05-01T00:02:17;17.75;;;6.95;;
26953;SDS011;14508;50.924;11.600;2023-05-01T00:04:45;13.95;;;7.15;;
26953;SDS011;14508;50.924;11.600;2023-05-01T00:07:13;14.90;;;7.57;;
26953;SDS011;14508;50.924;11.600;2023-05-01T00:09:41;17.95;;;7.32;;
26953;SDS011;14508;50.924;11.600;2023-05-01T00:12:10;13.98;;;7.50;;
26953;SDS011;14508;50.924;11.600;2023-05-01T00:14:38;16.42;;;7.80;;
26953;SDS011;14508;50.924;11.600;2023-05-01T00:17:07;16.45;;;7.00;;
26953;SDS011;14508;50.924;11.600;2023-05-01T00:19:34;19.92;;;7.15;;
26953;SDS011;14508;50.924;11.600;2023-05-01T00:22:06;15.40;;;6.50;;
26953;SDS011;14508;50.924;11.600;2023-05-01T00:24:34;22.20;;;7.20;;
26953;SDS011;14508;50.924;11.600;2023-05-01T00:27:01;15.55;;;7.25;;
26953;SDS011;14508;50.924;11.600;2023-05-01T00:29:31;18.63;;;7.82;;
26953;SDS011;14508;50.924;11.600;2023-05-01T00:31:58;17.73;;;7.43;;
26953;SDS011;14508;50.924;11.600;2023-05-01T00:34:26;20.08;;;7.35;;
26953;SDS011;14508;50.924;11.600;2023-05-01T00:36:55;12.18;;;6.75;;
26953;SDS011;14508;50.924;11.600;2023-05-01T00:39:24;17.40;;;6.85;;
26953;SDS011;14508;50.924;11.600;2023-05-01T00:41:51;14.45;;;6.47;;
26953;SDS011;14508;50.924;11.600;2023-05-01T00:44:20;12.73;;;7.28;;
26953;SDS011;14508;50.924;11.600;2023-05-01T00:46:49;12.35;;;6.88;;
26953;SDS011;14508;50.924;11.600;2023-05-01T00:49:17;17.27;;;6.13;;
26953;SDS011;14508;50.924;11.600;2023-05-01T00:51:46;16.58;;;6.82;;
26953;SDS011;14508;50.924;11.600;2023-05-01T00:54:18;12.95;;;6.22;;
26953;SDS011;14508;50.924;11.600;2023-05-01T00:56:46;18.60;;;8.50;;
26953;SDS011;14508;50.924;11.600;2023-05-01T00:59:15;17.27;;;8.23;;
26953;SDS011;14508;50.924;11.600;2023-05-01T01:01:43;14.70;;;7.25;;
26953;SDS011;14508;50.924;11.600;2023-05-01T01:04:12;19.88;;;7.68;;
26953;SDS011;14508;50.924;11.600;2023-05-01T01:06:41;16.38;;;7.25;;
26953;SDS011;14508;50.924;11.600;2023-05-01T01:09:22;16.02;;;7.97;;
26953;SDS011;14508;50.924;11.600;2023-05-01T01:12:01;13.35;;;7.43;;
26953;SDS011;14508;50.924;11.600;2023-05-01T01:14:35;21.20;;;7.68;;
26953;SDS011;14508;50.924;11.600;2023-05-01T01:17:10;19.43;;;6.70;;
26953;SDS011;14508;50.924;11.600;2023-05-01T01:22:56;18.02;;;7.05;;
26953;SDS011;14508;50.924;11.600;2023-05-01T01:25:54;17.40;;;7.60;;
26953;SDS011;14508;50.924;11.600;2023-05-01T01:28:50;14.82;;;7.20;;
26953;SDS011;14508;50.924;11.600;2023-05-01T01:31:56;14.63;;;7.68;;
26953;SDS011;14508;50.924;11.600;2023-05-01T01:34:38;16.42;;;7.28;;
26953;SDS011;14508;50.924;11.600;2023-05-01T01:37:10;15.93;;;8.20;;
26953;SDS011;14508;50.924;11.600;2023-05-01T01:39:44;14.73;;;7.17;;
26953;SDS011;14508;50.924;11.600;2023-05-01T01:42:17;18.48;;;7.95;;
26953;SDS011;14508;50.924;11.600;2023-05-01T01:44:49;16.20;;;7.65;;
26953;SDS011;14508;50.924;11.600;2023-05-01T01:47:18;23.60;;;7.47;;
26953;SDS011;14508;50.924;11.600;2023-05-01T01:49:53;15.35;;;7.53;;
26953;SDS011;14508;50.924;11.600;2023-05-01T01:52:23;18.67;;;7.65;;
26953;SDS011;14508;50.924;11.600;2023-05-01T01:54:54;18.85;;;7.82;;
26953;SDS011;14508;50.924;11.600;2023-05-01T01:57:27;18.75;;;7.68;;
26953;SDS011;14508;50.924;11.600;2023-05-01T01:59:56;21.73;;;8.25;;
26953;SDS011;14508;50.924;11.600;2023-05-01T02:02:24;19.27;;;8.50;;
26953;SDS011;14508;50.924;11.600;2023-05-01T02:04:55;20.67;;;8.13;;
26953;SDS011;14508;50.924;11.600;2023-05-01T02:07:25;15.15;;;7.70;;
26953;SDS011;14508;50.924;11.600;2023-05-01T02:09:55;19.38;;;7.65;;
26953;SDS011;14508;50.924;11.600;2023-05-01T02:12:24;15.05;;;7.55;;
26953;SDS011;14508;50.924;11.600;2023-05-01T02:14:53;19.45;;;7.63;;
26953;SDS011;14508;50.924;11.600;2023-05-01T02:17:24;12.50;;;6.70;;
26953;SDS011;14508;50.924;11.600;2023-05-01T02:19:55;17.08;;;7.70;;
26953;SDS011;14508;50.924;11.600;2023-05-01T02:22:23;16.20;;;6.72;;
26953;SDS011;14508;50.924;11.600;2023-05-01T02:24:52;19.30;;;7.78;;
26953;SDS011;14508;50.924;11.600;2023-05-01T02:27:23;18.42;;;7.80;;
26953;SDS011;14508;50.924;11.600;2023-05-01T02:29:58;15.27;;;7.15;;
26953;SDS011;14508;50.924;11.600;2023-05-01T02:32:26;18.95;;;7.95;;
26953;SDS011;14508;50.924;11.600;2023-05-01T02:34:56;16.02;;;6.95;;
26953;SDS011;14508;50.924;11.600;2023-05-01T02:37:25;18.50;;;7.88;;
26953;SDS011;14508;50.924;11.600;2023-05-01T02:39:55;18.42;;;8.35;;
26953;SDS011;14508;50.924;11.600;2023-05-01T02:42:24;22.05;;;8.40;;
26953;SDS011;14508;50.924;11.600;2023-05-01T02:44:55;17.20;;;7.47;;
26953;SDS011;14508;50.924;11.600;2023-05-01T02:47:26;18.45;;;7.22;;
26953;SDS011;14508;50.924;11.600;2023-05-01T02:49:57;20.52;;;8.05;;
26953;SDS011;14508;50.924;11.600;2023-05-01T02:52:26;19.98;;;8.05;;
26953;SDS011;14508;50.924;11.600;2023-05-01T02:55:12;26.05;;;8.93;;
26953;SDS011;14508;50.924;11.600;2023-05-01T02:57:40;18.50;;;7.88;;
26953;SDS011;14508;50.924;11.600;2023-05-01T03:00:09;20.33;;;8.48;;
26953;SDS011;14508;50.924;11.600;2023-05-01T03:02:39;22.52;;;9.15;;
26953;SDS011;14508;50.924;11.600;2023-05-01T03:05:09;16.30;;;7.95;;
26953;SDS011;14508;50.924;11.600;2023-05-01T03:07:37;19.60;;;7.55;;
26953;SDS011;14508;50.924;11.600;2023-05-01T03:10:06;18.38;;;8.75;;
26953;SDS011;14508;50.924;11.600;2023-05-01T03:12:34;20.48;;;7.72;;
26953;SDS011;14508;50.924;11.600;2023-05-01T03:15:02;19.63;;;8.77;;
26953;SDS011;14508;50.924;11.600;2023-05-01T03:17:31;21.25;;;8.40;;
26953;SDS011;14508;50.924;11.600;2023-05-01T03:19:59;21.73;;;8.60;;
26953;SDS011;14508;50.924;11.600;2023-05-01T03:22:29;20.00;;;7.75;;
26953;SDS011;14508;50.924;11.600;2023-05-01T03:24:58;13.07;;;7.28;;
26953;SDS011;14508;50.924;11.600;2023-05-01T03:27:26;17.83;;;7.78;;
26953;SDS011;14508;50.924;11.600;2023-05-01T03:29:56;22.67;;;9.18;;
26953;SDS011;14508;50.924;11.600;2023-05-01T03:32:24;21.42;;;8.07;;
26953;SDS011;14508;50.924;11.600;2023-05-01T03:34:55;14.90;;;8.18;;
26953;SDS011;14508;50.924;11.600;2023-05-01T03:37:23;15.73;;;8.68;;
26953;SDS011;14508;50.924;11.600;2023-05-01T03:39:52;16.17;;;8.40;;
26953;SDS011;14508;50.924;11.600;2023-05-01T03:42:53;16.25;;;8.27;;
26953;SDS011;14508;50.924;11.600;2023-05-01T03:45:22;19.75;;;8.95;;
26953;SDS011;14508;50.924;11.600;2023-05-01T03:47:50;24.27;;;9.57;;
26953;SDS011;14508;50.924;11.600;2023-05-01T03:50:18;21.77;;;9.45;;
26953;SDS011;14508;50.924;11.600;2023-05-01T03:52:49;16.60;;;8.40;;
26953;SDS011;14508;50.924;11.600;2023-05-01T03:55:18;18.75;;;9.02;;
26953;SDS011;14508;50.924;11.600;2023-05-01T03:57:46;17.77;;;9.00;;
26953;SDS011;14508;50.924;11.600;2023-05-01T04:00:15;21.30;;;9.18;;
26953;SDS011;14508;50.924;11.600;2023-05-01T04:02:45;22.38;;;8.77;;
26953;SDS011;14508;50.924;11.600;2023-05-01T04:05:18;17.30;;;8.20;;
26953;SDS011;14508;50.924;11.600;2023-05-01T04:07:54;22.63;;;8.82;;
26953;SDS011;14508;50.924;11.600;2023-05-01T04:10:23;18.23;;;9.05;;
26953;SDS011;14508;50.924;11.600;2023-05-01T04:13:02;16.35;;;8.15;;
26953;SDS011;14508;50.924;11.600;2023-05-01T04:15:30;17.77;;;8.20;;
26953;SDS011;14508;50.924;11.600;2023-05-01T04:17:58;16.70;;;8.57;;
26953;SDS011;14508;50.924;11.600;2023-05-01T04:20:26;21.27;;;9.05;;
26953;SDS011;14508;50.924;11.600;2023-05-01T04:22:54;18.75;;;8.73;;
26953;SDS011;14508;50.924;11.600;2023-05-01T04:25:24;22.75;;;8.68;;
26953;SDS011;14508;50.924;11.600;2023-05-01T04:27:57;25.50;;;7.63;;
26953;SDS011;14508;50.924;11.600;2023-05-01T04:30:25;23.70;;;9.35;;
26953;SDS011;14508;50.924;11.600;2023-05-01T04:32:54;20.00;;;10.30;;
26953;SDS011;14508;50.924;11.600;2023-05-01T04:35:22;23.23;;;9.82;;
26953;SDS011;14508;50.924;11.600;2023-05-01T04:37:50;19.17;;;9.43;;
26953;SDS011;14508;50.924;11.600;2023-05-01T04:40:19;16.85;;;8.68;;
26953;SDS011;14508;50.924;11.600;2023-05-01T04:42:49;23.35;;;8.95;;
26953;SDS011;14508;50.924;11.600;2023-05-01T04:45:17;23.35;;;8.80;;
26953;SDS011;14508;50.924;11.600;2023-05-01T04:47:45;23.08;;;8.73;;
26953;SDS011;14508;50.924;11.600;2023-05-01T04:50:13;26.88;;;10.13;;
26953;SDS011;14508;50.924;11.600;2023-05-01T04:52:41;22.95;;;10.32;;
26953;SDS011;14508;50.924;11.600;2023-05-01T04:55:09;23.63;;;9.57;;
26953;SDS011;14508;50.924;11.600;2023-05-01T04:57:47;23.42;;;9.43;;
26953;SDS011;14508;50.924;11.600;2023-05-01T05:00:16;17.67;;;8.52;;
26953;SDS011;14508;50.924;11.600;2023-05-01T05:02:52;19.08;;;9.68;;
26953;SDS011;14508;50.924;11.600;2023-05-01T05:05:21;23.55;;;9.30;;
26953;SDS011;14508;50.924;11.600;2023-05-01T05:07:49;19.77;;;8.98;;
26953;SDS011;14508;50.924;11.600;2023-05-01T05:10:28;19.92;;;9.18;;
26953;SDS011;14508;50.924;11.600;2023-05-01T05:13:14;20.30;;;9.48;;
26953;SDS011;14508;50.924;11.600;2023-05-01T05:15:44;20.58;;;9.75;;
26953;SDS011;14508;50.924;11.600;2023-05-01T05:18:13;25.25;;;10.15;;
26953;SDS011;14508;50.924;11.600;2023-05-01T05:20:41;20.15;;;9.13;;
26953;SDS011;14508;50.924;11.600;2023-05-01T05:23:09;23.13;;;9.77;;
26953;SDS011;14508;50.924;11.600;2023-05-01T05:25:37;19.23;;;8.80;;
26953;SDS011;14508;50.924;11.600;2023-05-01T05:28:05;24.55;;;10.02;;
26953;SDS011;14508;50.924;11.600;2023-05-01T05:30:35;26.08;;;9.23;;
26953;SDS011;14508;50.924;11.600;2023-05-01T05:33:07;22.58;;;9.32;;
26953;SDS011;14508;50.924;11.600;2023-05-01T05:35:35;21.23;;;9.32;;
26953;SDS011;14508;50.924;11.600;2023-05-01T05:38:03;26.60;;;9.50;;
26953;SDS011;14508;50.924;11.600;2023-05-01T05:40:35;19.55;;;9.20;;
26953;SDS011;14508;50.924;11.600;2023-05-01T05:43:03;21.60;;;9.73;;
26953;SDS011;14508;50.924;11.600;2023-05-01T05:45:32;19.63;;;9.23;;
26953;SDS011;14508;50.924;11.600;2023-05-01T05:48:01;18.02;;;9.23;;
26953;SDS011;14508;50.924;11.600;2023-05-01T05:50:33;27.75;;;10.77;;
26953;SDS011;14508;50.924;11.600;2023-05-01T05:53:01;16.90;;;10.02;;
26953;SDS011;14508;50.924;11.600;2023-05-01T05:55:29;16.67;;;9.52;;
26953;SDS011;14508;50.924;11.600;2023-05-01T05:58:01;19.73;;;9.07;;
26953;SDS011;14508;50.924;11.600;2023-05-01T06:00:30;26.45;;;9.18;;
26953;SDS011;14508;50.924;11.600;2023-05-01T06:03:02;20.13;;;9.23;;
26953;SDS011;14508;50.924;11.600;2023-05-01T06:05:33;20.63;;;10.10;;
26953;SDS011;14508;50.924;11.600;2023-05-01T06:08:01;18.85;;;8.70;;
26953;SDS011;14508;50.924;11.600;2023-05-01T06:10:29;25.75;;;9.57;;
26953;SDS011;14508;50.924;11.600;2023-05-01T06:12:57;27.75;;;9.63;;
26953;SDS011;14508;50.924;11.600;2023-05-01T06:15:41;17.25;;;8.95;;
26953;SDS011;14508;50.924;11.600;2023-05-01T06:18:10;15.60;;;8.45;;
26953;SDS011;14508;50.924;11.600;2023-05-01T06:20:39;22.20;;;9.70;;
26953;SDS011;14508;50.924;11.600;2023-05-01T06:23:08;23.60;;;9.77;;
26953;SDS011;14508;50.924;11.600;2023-05-01T06:25:42;23.52;;;8.40;;
26953;SDS011;14508;50.924;11.600;2023-05-01T06:28:10;20.83;;;10.07;;
26953;SDS011;14508;50.924;11.600;2023-05-01T06:30:38;18.58;;;10.00;;
26953;SDS011;14508;50.924;11.600;2023-05-01T06:33:06;14.85;;;9.75;;
26953;SDS011;14508;50.924;11.600;2023-05-01T06:35:41;17.92;;;9.50;;
26953;SDS011;14508;50.924;11.600;2023-05-01T06:38:09;19.55;;;10.00;;
26953;SDS011;14508;50.924;11.600;2023-05-01T06:40:37;18.77;;;10.23;;
26953;SDS011;14508;50.924;11.600;2023-05-01T06:43:05;18.45;;;10.00;;
26953;SDS011;14508;50.924;11.600;2023-05-01T06:45:33;24.83;;;9.27;;
26953;SDS011;14508;50.924;11.600;2023-05-01T06:48:04;20.17;;;9.50;;
26953;SDS011;14508;50.924;11.600;2023-05-01T06:50:34;23.00;;;10.23;;
26953;SDS011;14508;50.924;11.600;2023-05-01T06:53:03;21.30;;;9.82;;
26953;SDS011;14508;50.924;11.600;2023-05-01T06:55:31;23.02;;;10.77;;
26953;SDS011;14508;50.924;11.600;2023-05-01T06:58:01;19.83;;;10.43;;
26953;SDS011;14508;50.924;11.600;2023-05-01T07:00:47;22.90;;;10.63;;
26953;SDS011;14508;50.924;11.600;2023-05-01T07:03:15;18.15;;;10.68;;
26953;SDS011;14508;50.924;11.600;2023-05-01T07:05:43;23.88;;;10.45;;
26953;SDS011;14508;50.924;11.600;2023-05-01T07:08:12;20.80;;;9.63;;
26953;SDS011;14508;50.924;11.600;2023-05-01T07:10:40;23.23;;;9.75;;
26953;SDS011;14508;50.924;11.600;2023-05-01T07:13:08;20.38;;;10.05;;
26953;SDS011;14508;50.924;11.600;2023-05-01T07:15:36;23.92;;;10.25;;
26953;SDS011;14508;50.924;11.600;2023-05-01T07:18:04;18.35;;;8.95;;
26953;SDS011;14508;50.924;11.600;2023-05-01T07:20:33;19.20;;;9.05;;
26953;SDS011;14508;50.924;11.600;2023-05-01T07:23:01;21.85;;;9.65;;
26953;SDS011;14508;50.924;11.600;2023-05-01T07:25:33;21.10;;;9.90;;
26953;SDS011;14508;50.924;11.600;2023-05-01T07:28:03;20.75;;;9.85;;
26953;SDS011;14508;50.924;11.600;2023-05-01T07:30:31;26.52;;;10.77;;
26953;SDS011;14508;50.924;11.600;2023-05-01T07:32:59;20.90;;;9.73;;
26953;SDS011;14508;50.924;11.600;2023-05-01T07:35:27;20.90;;;10.32;;
26953;SDS011;14508;50.924;11.600;2023-05-01T07:37:55;20.85;;;11.20;;
26953;SDS011;14508;50.924;11.600;2023-05-01T07:40:23;23.98;;;10.80;;
26953;SDS011;14508;50.924;11.600;2023-05-01T07:42:53;28.17;;;11.27;;
26953;SDS011;14508;50.924;11.600;2023-05-01T07:45:20;28.23;;;12.15;;
26953;SDS011;14508;50.924;11.600;2023-05-01T07:47:48;24.50;;;11.23;;
26953;SDS011;14508;50.924;11.600;2023-05-01T07:50:17;30.10;;;12.77;;
26953;SDS011;14508;50.924;11.600;2023-05-01T07:52:45;24.05;;;11.68;;
26953;SDS011;14508;50.924;11.600;2023-05-01T07:55:13;22.05;;;11.65;;
26953;SDS011;14508;50.924;11.600;2023-05-01T07:57:44;22.20;;;11.23;;
26953;SDS011;14508;50.924;11.600;2023-05-01T08:00:14;24.23;;;11.50;;
26953;SDS011;14508;50.924;11.600;2023-05-01T08:02:42;22.67;;;11.45;;
26953;SDS011;14508;50.924;11.600;2023-05-01T08:05:10;26.63;;;13.25;;
26953;SDS011;14508;50.924;11.600;2023-05-01T08:07:38;20.92;;;10.48;;
26953;SDS011;14508;50.924;11.600;2023-05-01T08:10:06;27.98;;;11.68;;
26953;SDS011;14508;50.924;11.600;2023-05-01T08:12:35;25.70;;;10.75;;
26953;SDS011;14508;50.924;11.600;2023-05-01T08:15:03;25.23;;;11.70;;
26953;SDS011;14508;50.924;11.600;2023-05-01T08:17:34;21.30;;;11.07;;
26953;SDS011;14508;50.924;11.600;2023-05-01T08:20:03;19.50;;;10.35;;
26953;SDS011;14508;50.924;11.600;2023-05-01T08:22:31;19.70;;;11.05;;
26953;SDS011;14508;50.924;11.600;2023-05-01T08:24:59;26.73;;;10.65;;
26953;SDS011;14508;50.924;11.600;2023-05-01T08:27:27;23.17;;;10.65;;
26953;SDS011;14508;50.924;11.600;2023-05-01T08:29:55;18.63;;;10.50;;
26953;SDS011;14508;50.924;11.600;2023-05-01T08:32:23;22.42;;;9.77;;
26953;SDS011;14508;50.924;11.600;2023-05-01T08:34:53;19.05;;;10.20;;
26953;SDS011;14508;50.924;11.600;2023-05-01T08:37:21;19.17;;;9.90;;
26953;SDS011;14508;50.924;11.600;2023-05-01T08:39:49;21.63;;;9.85;;
26953;SDS011;14508;50.924;11.600;2023-05-01T08:42:17;22.08;;;10.30;;
26953;SDS011;14508;50.924;11.600;2023-05-01T08:44:45;19.65;;;10.05;;
26953;SDS011;14508;50.924;11.600;2023-05-01T08:47:18;18.85;;;10.40;;
26953;SDS011;14508;50.924;11.600;2023-05-01T08:49:46;20.60;;;9.23;;
26953;SDS011;14508;50.924;11.600;2023-05-01T08:52:18;15.65;;;9.38;;
26953;SDS011;14508;50.924;11.600;2023-05-01T08:54:48;19.38;;;9.65;;
26953;SDS011;14508;50.924;11.600;2023-05-01T08:57:19;19.92;;;9.43;;
26953;SDS011;14508;50.924;11.600;2023-05-01T08:59:48;15.45;;;9.07;;
26953;SDS011;14508;50.924;11.600;2023-05-01T09:02:18;17.55;;;9.57;;
26953;SDS011;14508;50.924;11.600;2023-05-01T09:04:49;17.77;;;9.68;;
26953;SDS011;14508;50.924;11.600;2023-05-01T09:07:19;24.92;;;10.55;;
26953;SDS011;14508;50.924;11.600;2023-05-01T09:09:47;19.27;;;9.85;;
26953;SDS011;14508;50.924;11.600;2023-05-01T09:12:17;17.92;;;9.60;;
26953;SDS011;14508;50.924;11.600;2023-05-01T09:14:49;18.33;;;9.65;;
26953;SDS011;14508;50.924;11.600;2023-05-01T09:17:18;23.25;;;9.65;;
26953;SDS011;14508;50.924;11.600;2023-05-01T09:19:48;19.95;;;10.30;;
26953;SDS011;14508;50.924;11.600;2023-05-01T09:22:16;24.13;;;10.27;;
26953;SDS011;14508;50.924;11.600;2023-05-01T09:24:46;20.75;;;9.70;;
26953;SDS011;14508;50.924;11.600;2023-05-01T09:27:14;21.40;;;9.82;;
26953;SDS011;14508;50.924;11.600;2023-05-01T09:29:42;17.33;;;10.00;;
26953;SDS011;14508;50.924;11.600;2023-05-01T09:32:12;19.02;;;9.40;;
26953;SDS011;14508;50.924;11.600;2023-05-01T09:34:42;18.05;;;9.65;;
26953;SDS011;14508;50.924;11.600;2023-05-01T09:37:11;18.20;;;9.15;;
26953;SDS011;14508;50.924;11.600;2023-05-01T09:40:00;17.50;;;9.00;;
26953;SDS011;14508;50.924;11.600;2023-05-01T09:42:33;14.65;;;8.18;;
26953;SDS011;14508;50.924;11.600;2023-05-01T09:45:04;16.23;;;8.38;;
26953;SDS011;14508;50.924;11.600;2023-05-01T09:47:33;16.67;;;8.20;;
26953;SDS011;14508;50.924;11.600;2023-05-01T09:50:01;13.82;;;6.90;;
26953;SDS011;14508;50.924;11.600;2023-05-01T09:52:29;14.07;;;6.45;;
26953;SDS011;14508;50.924;11.600;2023-05-01T09:55:11;12.35;;;6.68;;
26953;SDS011;14508;50.924;11.600;2023-05-01T09:57:41;13.88;;;7.00;;
26953;SDS011;14508;50.924;11.600;2023-05-01T10:00:12;12.35;;;6.93;;
26953;SDS011;14508;50.924;11.600;2023-05-01T10:02:42;16.98;;;8.35;;
26953;SDS011;14508;50.924;11.600;2023-05-01T10:05:12;15.40;;;7.72;;
26953;SDS011;14508;50.924;11.600;2023-05-01T10:07:53;7.45;;;4.78;;
26953;SDS011;14508;50.924;11.600;2023-05-01T10:10:24;9.55;;;4.85;;
26953;SDS011;14508;50.924;11.600;2023-05-01T10:12:52;14.35;;;5.55;;
26953;SDS011;14508;50.924;11.600;2023-05-01T10:15:21;16.17;;;5.60;;
26953;SDS011;14508;50.924;11.600;2023-05-01T10:18:02;11.25;;;4.97;;
26953;SDS011;14508;50.924;11.600;2023-05-01T10:20:31;10.65;;;5.15;;
26953;SDS011;14508;50.924;11.600;2023-05-01T10:22:59;10.27;;;5.57;;
26953;SDS011;14508;50.924;11.600;2023-05-01T10:25:29;11.35;;;4.78;;
26953;SDS011;14508;50.924;11.600;2023-05-01T10:27:59;9.05;;;4.60;;
26953;SDS011;14508;50.924;11.600;2023-05-01T10:30:31;11.18;;;4.65;;
26953;SDS011;14508;50.924;11.600;2023-05-01T10:33:01;11.45;;;4.68;;
26953;SDS011;14508;50.924;11.600;2023-05-01T10:35:31;7.72;;;4.55;;
26953;SDS011;14508;50.924;11.600;2023-05-01T10:38:03;5.97;;;4.03;;
26953;SDS011;14508;50.924;11.600;2023-05-01T10:40:43;7.93;;;4.20;;
26953;SDS011;14508;50.924;11.600;2023-05-01T10:43:13;8.52;;;4.13;;
26953;SDS011;14508;50.924;11.600;2023-05-01T10:45:43;7.15;;;3.80;;
26953;SDS011;14508;50.924;11.600;2023-05-01T10:48:13;10.93;;;4.85;;
26953;SDS011;14508;50.924;11.600;2023-05-01T10:51:19;8.13;;;4.47;;
26953;SDS011;14508;50.924;11.600;2023-05-01T10:56:52;10.98;;;4.65;;
26953;SDS011;14508;50.924;11.600;2023-05-01T10:59:21;11.85;;;5.00;;
26953;SDS011;14508;50.924;11.600;2023-05-01T11:01:49;10.73;;;5.30;;
26953;SDS011;14508;50.924;11.600;2023-05-01T11:04:44;7.93;;;4.78;;
26953;SDS011;14508;50.924;11.600;2023-05-01T11:07:22;10.40;;;4.80;;
26953;SDS011;14508;50.924;11.600;2023-05-01T11:09:50;8.95;;;5.10;;
26953;SDS011;14508;50.924;11.600;2023-05-01T11:15:24;9.57;;;4.78;;
26953;SDS011;14508;50.924;11.600;2023-05-01T11:17:53;9.52;;;4.78;;
26953;SDS011;14508;50.924;11.600;2023-05-01T11:23:27;14.10;;;5.97;;
26953;SDS011;14508;50.924;11.600;2023-05-01T11:26:01;7.60;;;5.00;;
26953;SDS011;14508;50.924;11.600;2023-05-01T11:28:32;10.55;;;4.63;;
26953;SDS011;14508;50.924;11.600;2023-05-01T11:31:00;10.95;;;4.45;;
26953;SDS011;14508;50.924;11.600;2023-05-01T11:33:28;5.93;;;3.72;;
26953;SDS011;14508;50.924;11.600;2023-05-01T11:35:57;7.80;;;4.25;;
26953;SDS011;14508;50.924;11.600;2023-05-01T11:38:26;8.20;;;4.32;;
26953;SDS011;14508;50.924;11.600;2023-05-01T11:40:55;6.95;;;3.65;;
26953;SDS011;14508;50.924;11.600;2023-05-01T11:43:26;7.03;;;3.90;;
26953;SDS011;14508;50.924;11.600;2023-05-01T11:45:56;9.65;;;4.40;;
26953;SDS011;14508;50.924;11.600;2023-05-01T11:48:29;7.40;;;4.15;;
26953;SDS011;14508;50.924;11.600;2023-05-01T11:50:57;6.97;;;3.97;;
26953;SDS011;14508;50.924;11.600;2023-05-01T11:53:25;9.05;;;4.00;;
26953;SDS011;14508;50.924;11.600;2023-05-01T11:55:53;4.57;;;3.53;;
26953;SDS011;14508;50.924;11.600;2023-05-01T11:58:31;6.57;;;3.50;;
26953;SDS011;14508;50.924;11.600;2023-05-01T12:01:01;9.00;;;4.05;;
26953;SDS011;14508;50.924;11.600;2023-05-01T12:03:39;7.72;;;3.72;;
26953;SDS011;14508;50.924;11.600;2023-05-01T12:06:09;10.10;;;4.05;;
26953;SDS011;14508;50.924;11.600;2023-05-01T12:08:40;7.55;;;3.42;;
26953;SDS011;14508;50.924;11.600;2023-05-01T12:11:10;6.20;;;3.88;;
26953;SDS011;14508;50.924;11.600;2023-05-01T12:13:39;6.20;;;3.60;;
26953;SDS011;14508;50.924;11.600;2023-05-01T12:16:09;7.60;;;4.75;;
26953;SDS011;14508;50.924;11.600;2023-05-01T12:18:37;6.93;;;3.80;;
26953;SDS011;14508;50.924;11.600;2023-05-01T12:21:05;6.32;;;3.75;;
26953;SDS011;14508;50.924;11.600;2023-05-01T12:23:42;9.90;;;5.10;;
26953;SDS011;14508;50.924;11.600;2023-05-01T12:26:17;9.65;;;6.22;;
26953;SDS011;14508;50.924;11.600;2023-05-01T12:28:52;11.90;;;5.95;;
26953;SDS011;14508;50.924;11.600;2023-05-01T12:31:22;14.75;;;6.68;;
26953;SDS011;14508;50.924;11.600;2023-05-01T12:33:53;14.38;;;6.05;;
26953;SDS011;14508;50.924;11.600;2023-05-01T12:36:24;10.60;;;6.20;;
26953;SDS011;14508;50.924;11.600;2023-05-01T12:38:54;14.55;;;6.22;;
26953;SDS011;14508;50.924;11.600;2023-05-01T12:41:34;13.82;;;6.32;;
26953;SDS011;14508;50.924;11.600;2023-05-01T12:44:14;10.75;;;5.38;;
26953;SDS011;14508;50.924;11.600;2023-05-01T12:46:51;9.73;;;5.68;;
26953;SDS011;14508;50.924;11.600;2023-05-01T12:49:20;7.88;;;5.22;;
26953;SDS011;14508;50.924;11.600;2023-05-01T12:51:49;15.52;;;5.65;;
26953;SDS011;14508;50.924;11.600;2023-05-01T12:54:19;11.00;;;5.38;;
26953;SDS011;14508;50.924;11.600;2023-05-01T12:56:47;6.78;;;4.95;;
26953;SDS011;14508;50.924;11.600;2023-05-01T12:59:19;10.55;;;5.07;;
26953;SDS011;14508;50.924;11.600;2023-05-01T13:01:50;11.00;;;5.18;;
26953;SDS011;14508;50.924;11.600;2023-05-01T13:04:23;9.57;;;6.03;;
26953;SDS011;14508;50.924;11.600;2023-05-01T13:06:52;15.43;;;5.32;;
26953;SDS011;14508;50.924;11.600;2023-05-01T13:09:21;11.68;;;5.53;;
26953;SDS011;14508;50.924;11.600;2023-05-01T13:11:56;9.00;;;5.55;;
26953;SDS011;14508;50.924;11.600;2023-05-01T13:14:25;9.25;;;5.40;;
26953;SDS011;14508;50.924;11.600;2023-05-01T13:16:55;8.18;;;5.38;;
26953;SDS011;14508;50.924;11.600;2023-05-01T13:19:23;10.02;;;5.60;;
26953;SDS011;14508;50.924;11.600;2023-05-01T13:21:54;8.38;;;5.30;;
26953;SDS011;14508;50.924;11.600;2023-05-01T13:24:22;9.50;;;4.97;;
26953;SDS011;14508;50.924;11.600;2023-05-01T13:26:57;9.75;;;5.60;;
26953;SDS011;14508;50.924;11.600;2023-05-01T13:29:30;8.75;;;4.57;;
26953;SDS011;14508;50.924;11.600;2023-05-01T13:31:59;12.02;;;5.25;;
26953;SDS011;14508;50.924;11.600;2023-05-01T13:34:31;10.10;;;5.78;;
26953;SDS011;14508;50.924;11.600;2023-05-01T13:37:00;12.50;;;6.50;;
26953;SDS011;14508;50.924;11.600;2023-05-01T13:39:28;13.48;;;6.18;;
26953;SDS011;14508;50.924;11.600;2023-05-01T13:41:56;10.52;;;5.20;;
26953;SDS011;14508;50.924;11.600;2023-05-01T13:44:24;9.40;;;5.22;;
26953;SDS011;14508;50.924;11.600;2023-05-01T13:46:53;11.82;;;5.57;;
26953;SDS011;14508;50.924;11.600;2023-05-01T13:49:22;11.25;;;5.65;;
26953;SDS011;14508;50.924;11.600;2023-05-01T13:51:51;8.45;;;6.00;;
26953;SDS011;14508;50.924;11.600;2023-05-01T13:54:20;8.90;;;5.38;;
26953;SDS011;14508;50.924;11.600;2023-05-01T13:56:48;7.82;;;6.03;;
26953;SDS011;14508;50.924;11.600;2023-05-01T13:59:17;10.85;;;5.93;;
26953;SDS011;14508;50.924;11.600;2023-05-01T14:01:45;9.35;;;5.38;;
26953;SDS011;14508;50.924;11.600;2023-05-01T14:04:14;12.43;;;5.60;;
26953;SDS011;14508;50.924;11.600;2023-05-01T14:06:47;12.15;;;5.60;;
26953;SDS011;14508;50.924;11.600;2023-05-01T14:09:16;13.20;;;6.50;;
26953;SDS011;14508;50.924;11.600;2023-05-01T14:11:45;9.80;;;5.75;;
26953;SDS011;14508;50.924;11.600;2023-05-01T14:14:14;9.85;;;6.05;;
26953;SDS011;14508;50.924;11.600;2023-05-01T14:16:45;11.52;;;5.68;;
26953;SDS011;14508;50.924;11.600;2023-05-01T14:19:14;9.98;;;5.70;;
26953;SDS011;14508;50.924;11.600;2023-05-01T14:21:43;13.23;;;6.18;;
26953;SDS011;14508;50.924;11.600;2023-05-01T14:24:13;11.02;;;5.55;;
26953;SDS011;14508;50.924;11.600;2023-05-01T14:26:44;13.70;;;6.47;;
26953;SDS011;14508;50.924;11.600;2023-05-01T14:29:20;15.40;;;5.88;;
26953;SDS011;14508;50.924;11.600;2023-05-01T14:31:52;10.52;;;6.20;;
26953;SDS011;14508;50.924;11.600;2023-05-01T14:34:21;10.80;;;5.93;;
26953;SDS011;14508;50.924;11.600;2023-05-01T14:36:49;13.70;;;6.38;;
26953;SDS011;14508;50.924;11.600;2023-05-01T14:39:18;12.10;;;5.60;;
26953;SDS011;14508;50.924;11.600;2023-05-01T14:41:47;8.15;;;5.68;;
26953;SDS011;14508;50.924;11.600;2023-05-01T14:44:15;12.90;;;6.38;;
26953;SDS011;14508;50.924;11.600;2023-05-01T14:46:46;13.35;;;6.53;;
26953;SDS011;14508;50.924;11.600;2023-05-01T14:49:17;11.02;;;6.38;;
26953;SDS011;14508;50.924;11.600;2023-05-01T14:51:47;9.05;;;5.88;;
26953;SDS011;14508;50.924;11.600;2023-05-01T14:54:15;11.95;;;6.45;;